Barton, Colorado
Current Conditions -  °F | °C
As of 4:53 AM on Tuesday 27 Jan 2015 (Local Time) from KLAA Reporting Station
Clear Clear  
Wind Chill: 27°   Ceiling: Unl
Heat Index: 34°   Visibility: 10mi
Dew Point: 30°   Wind: 8mph
Humidity: 85%   Direction: 240°WSW
Pressure: 30.15"   Gusts: NA
Location:  37.8751°N, 102.389°W
Report Text: KLAA 271153Z AUTO 24007KT 10SM CLR 01/M01 A3015 RMK AO2 SLP200 T00111011 10061 21006 56004
Loading
Personal Weather Stations






























Interactive Weather Map New forecast layout! Learn more

10-Day Weather Forecast

Advertisements
Track Severe Weather on mobile